createdAt,value
2022-11-02T00:01:09.558Z,7.33
2022-11-02T00:03:37.496Z,8.47
2022-11-02T00:06:05.505Z,8.70
2022-11-02T00:08:34.798Z,10.23
2022-11-02T00:11:02.685Z,6.63
2022-11-02T00:13:30.655Z,5.77
2022-11-02T00:15:58.968Z,4.97
2022-11-02T00:18:27.065Z,9.03
2022-11-02T00:20:56.843Z,12.27
2022-11-02T00:23:25.202Z,7.47
2022-11-02T00:25:57.345Z,4.50
2022-11-02T00:28:28.122Z,6.37
2022-11-02T00:30:56.763Z,5.40
2022-11-02T00:33:25.118Z,5.03
2022-11-02T00:35:54.200Z,8.13
2022-11-02T00:38:22.197Z,10.13
2022-11-02T00:40:50.113Z,7.10
2022-11-02T00:43:19.422Z,9.60
2022-11-02T00:45:47.309Z,14.93
2022-11-02T00:48:15.272Z,6.07
2022-11-02T00:50:43.210Z,6.93
2022-11-02T00:53:12.139Z,6.33
2022-11-02T00:55:47.470Z,7.37
2022-11-02T00:58:15.534Z,8.27
2022-11-02T01:00:44.937Z,3.97
2022-11-02T01:03:12.846Z,9.33
2022-11-02T01:05:40.775Z,6.77
2022-11-02T01:08:10.023Z,4.13
2022-11-02T01:10:38.998Z,10.73
2022-11-02T01:13:07.547Z,10.37
2022-11-02T01:15:37.945Z,6.70
2022-11-02T01:18:09.139Z,7.77
2022-11-02T01:20:37.045Z,4.73
2022-11-02T01:23:05.007Z,9.30
2022-11-02T01:25:32.911Z,6.17
2022-11-02T01:28:01.015Z,12.47
2022-11-02T01:30:29.167Z,6.97
2022-11-02T01:32:57.141Z,6.73
2022-11-02T01:35:26.441Z,6.30
2022-11-02T01:37:55.975Z,7.87
2022-11-02T01:40:23.915Z,8.80
2022-11-02T01:42:52.053Z,7.60
2022-11-02T01:45:20.121Z,7.03
2022-11-02T01:47:49.723Z,5.60
2022-11-02T01:50:21.476Z,8.17
2022-11-02T01:52:50.802Z,5.50
2022-11-02T01:55:22.601Z,5.13
2022-11-02T01:57:56.749Z,7.40
2022-11-02T02:00:24.809Z,5.80
2022-11-02T02:02:57.903Z,5.20
2022-11-02T02:05:25.992Z,6.43
2022-11-02T02:07:56.616Z,4.33
2022-11-02T02:10:24.525Z,6.17
2022-11-02T02:12:52.694Z,6.37
2022-11-02T02:15:26.340Z,5.90
2022-11-02T02:18:02.021Z,6.43
2022-11-02T02:20:43.313Z,6.70
2022-11-02T02:24:02.726Z,8.10
2022-11-02T02:26:52.322Z,5.60
2022-11-02T02:29:24.064Z,8.20
2022-11-02T02:32:00.704Z,8.60
2022-11-02T02:34:35.086Z,3.67
2022-11-02T02:37:07.861Z,6.93
2022-11-02T02:39:43.507Z,4.53
2022-11-02T02:42:18.788Z,8.20
2022-11-02T02:44:55.499Z,6.90
2022-11-02T02:47:29.997Z,4.60
2022-11-02T02:50:05.638Z,5.40
2022-11-02T02:52:37.462Z,4.27
2022-11-02T02:55:09.208Z,6.13
2022-11-02T02:57:38.482Z,10.03
2022-11-02T03:00:14.528Z,6.40
2022-11-02T03:02:45.035Z,8.60
2022-11-02T03:05:24.777Z,9.93
2022-11-02T03:07:53.957Z,6.37
2022-11-02T03:10:27.323Z,4.63
2022-11-02T03:13:06.018Z,2.83
2022-11-02T03:15:41.605Z,9.97
2022-11-02T03:18:18.671Z,7.57
2022-11-02T03:20:58.925Z,4.87
2022-11-02T03:23:33.379Z,4.67
2022-11-02T03:26:07.830Z,5.23
2022-11-02T03:28:53.389Z,7.27
2022-11-02T03:31:32.389Z,11.03
2022-11-02T03:34:06.664Z,6.20
2022-11-02T03:36:38.418Z,5.10
2022-11-02T03:39:10.218Z,6.70
2022-11-02T03:41:41.536Z,5.33
2022-11-02T03:44:15.422Z,6.53
2022-11-02T03:46:46.013Z,5.53
2022-11-02T03:49:20.649Z,6.40
2022-11-02T03:51:52.167Z,5.17
2022-11-02T03:54:28.324Z,6.47
2022-11-02T03:57:00.685Z,6.33
2022-11-02T03:59:31.801Z,7.03
2022-11-02T04:02:03.088Z,4.03
2022-11-02T04:04:31.943Z,5.73
2022-11-02T04:06:59.947Z,4.60
2022-11-02T04:09:28.587Z,4.57
2022-11-02T04:12:14.172Z,5.23
2022-11-02T04:14:42.173Z,5.73
2022-11-02T04:17:32.424Z,3.50
2022-11-02T04:20:02.866Z,5.77
2022-11-02T04:22:48.612Z,4.50
2022-11-02T04:25:22.126Z,6.53
2022-11-02T04:28:09.096Z,4.63
2022-11-02T04:30:45.521Z,6.03
2022-11-02T04:33:33.731Z,6.90
2022-11-02T04:36:13.326Z,8.60
2022-11-02T04:38:41.371Z,5.27
2022-11-02T04:41:33.869Z,6.20
2022-11-02T04:44:02.440Z,6.17
2022-11-02T04:46:33.351Z,11.23
2022-11-02T04:49:05.298Z,6.63
2022-11-02T04:51:35.132Z,7.30
2022-11-02T04:54:04.091Z,7.13
2022-11-02T04:56:33.451Z,5.03
2022-11-02T04:59:02.560Z,6.30
2022-11-02T05:01:33.869Z,4.87
2022-11-02T05:04:04.476Z,4.03
2022-11-02T05:06:34.739Z,4.00
2022-11-02T05:09:03.321Z,3.90
2022-11-02T05:11:32.586Z,13.60
2022-11-02T05:14:02.478Z,6.20
2022-11-02T05:16:30.926Z,9.47
2022-11-02T05:18:59.602Z,10.40
2022-11-02T05:21:29.776Z,6.67
2022-11-02T05:23:59.337Z,7.63
2022-11-02T05:26:28.687Z,10.83
2022-11-02T05:28:57.214Z,13.07
2022-11-02T05:31:25.370Z,10.20
2022-11-02T05:33:53.877Z,8.60
2022-11-02T05:36:23.340Z,7.97
2022-11-02T05:38:55.271Z,7.47
2022-11-02T05:41:23.808Z,4.90
2022-11-02T05:43:54.746Z,8.83
2022-11-02T05:46:24.687Z,5.60
2022-11-02T05:48:52.722Z,7.30
2022-11-02T05:51:20.648Z,4.03
2022-11-02T05:53:48.651Z,7.33
2022-11-02T05:56:23.712Z,6.80
2022-11-02T05:58:54.667Z,7.90
2022-11-02T06:01:22.808Z,6.47
2022-11-02T06:03:53.709Z,9.00
2022-11-02T06:06:22.673Z,6.23
2022-11-02T06:08:50.733Z,10.60
2022-11-02T06:11:20.158Z,7.33
2022-11-02T06:13:51.650Z,6.57
2022-11-02T06:16:23.049Z,9.00
2022-11-02T06:18:51.722Z,6.43
2022-11-02T06:21:19.938Z,8.03
2022-11-02T06:23:49.038Z,4.60
2022-11-02T06:26:17.506Z,5.23
2022-11-02T06:28:47.536Z,6.40
2022-11-02T06:31:17.433Z,6.03
2022-11-02T06:33:46.053Z,7.33
2022-11-02T06:36:13.982Z,7.20
2022-11-02T06:38:42.163Z,10.20
2022-11-02T06:41:10.410Z,10.20
2022-11-02T06:43:39.772Z,8.93
2022-11-02T06:46:09.486Z,8.53
2022-11-02T06:48:37.461Z,12.50
2022-11-02T06:51:06.404Z,14.47
2022-11-02T06:53:34.583Z,15.80
2022-11-02T06:56:02.521Z,8.63
2022-11-02T06:58:30.654Z,9.20
2022-11-02T07:01:00.912Z,6.27
2022-11-02T07:03:31.006Z,6.97
2022-11-02T07:06:00.397Z,3.97
2022-11-02T07:08:29.496Z,8.43
2022-11-02T07:10:57.736Z,9.03
2022-11-02T07:13:25.984Z,7.20
2022-11-02T07:15:54.396Z,14.53
2022-11-02T07:18:22.599Z,5.80
2022-11-02T07:20:52.045Z,11.53
2022-11-02T07:23:23.620Z,10.60
2022-11-02T07:25:51.667Z,9.87
2022-11-02T07:28:19.587Z,17.33
2022-11-02T07:30:47.517Z,7.70
2022-11-02T07:33:15.504Z,6.43
2022-11-02T07:35:43.822Z,14.73
2022-11-02T07:38:13.380Z,12.50
2022-11-02T07:40:41.383Z,21.37
2022-11-02T07:43:09.594Z,7.30
2022-11-02T07:45:53.551Z,8.33
2022-11-02T07:48:21.926Z,19.93
2022-11-02T07:50:49.816Z,10.83
2022-11-02T07:53:19.119Z,14.60
2022-11-02T07:55:47.161Z,13.87
2022-11-02T07:58:15.132Z,13.63
2022-11-02T08:00:43.856Z,10.83
2022-11-02T08:03:12.755Z,11.27
2022-11-02T08:05:42.843Z,9.37
2022-11-02T08:08:13.927Z,11.30
2022-11-02T08:10:44.640Z,11.53
2022-11-02T08:13:14.723Z,15.37
2022-11-02T08:15:43.451Z,6.17
2022-11-02T08:18:17.225Z,6.53
2022-11-02T08:20:47.376Z,5.77
2022-11-02T08:23:17.034Z,7.73
2022-11-02T08:25:51.177Z,16.57
2022-11-02T08:28:21.897Z,11.87
2022-11-02T08:30:50.225Z,6.33
2022-11-02T08:33:19.825Z,7.23
2022-11-02T08:35:49.090Z,3.97
2022-11-02T08:38:18.442Z,3.97
2022-11-02T08:40:48.259Z,6.10
2022-11-02T08:43:17.170Z,5.40
2022-11-02T08:48:34.932Z,7.63
2022-11-02T08:51:05.705Z,7.73
2022-11-02T08:53:33.750Z,7.57
2022-11-02T08:56:03.231Z,6.37
2022-11-02T08:58:31.335Z,6.23
2022-11-02T09:00:59.592Z,8.07
2022-11-02T09:03:28.396Z,5.53
2022-11-02T09:06:00.825Z,6.73
2022-11-02T09:08:29.356Z,4.77
2022-11-02T09:11:00.626Z,5.97
2022-11-02T09:13:30.565Z,4.57
2022-11-02T09:16:00.601Z,8.37
2022-11-02T09:18:29.631Z,6.60
2022-11-02T09:20:58.197Z,6.90
2022-11-02T09:23:26.164Z,9.20
2022-11-02T09:25:54.675Z,7.93
2022-11-02T09:28:22.757Z,4.10
2022-11-02T09:31:11.579Z,6.97
2022-11-02T09:33:40.910Z,13.13
2022-11-02T09:36:09.652Z,4.50
2022-11-02T09:38:38.127Z,8.83
2022-11-02T09:41:27.258Z,9.43
2022-11-02T09:44:04.134Z,9.30
2022-11-02T09:46:39.964Z,9.83
2022-11-02T09:49:13.928Z,6.13
2022-11-02T09:51:45.756Z,8.83
2022-11-02T09:54:19.329Z,7.67
2022-11-02T09:56:48.608Z,9.83
2022-11-02T09:59:18.383Z,5.77
2022-11-02T10:02:06.878Z,10.10
2022-11-02T10:04:55.127Z,6.57
2022-11-02T10:07:37.953Z,9.63
2022-11-02T10:10:13.851Z,9.87
2022-11-02T10:12:49.774Z,4.87
2022-11-02T10:15:22.732Z,10.77
2022-11-02T10:17:57.529Z,8.83
2022-11-02T10:20:28.473Z,8.60
2022-11-02T10:23:03.636Z,5.80
2022-11-02T10:25:31.892Z,8.97
2022-11-02T10:28:05.235Z,12.77
2022-11-02T10:30:33.675Z,9.93
2022-11-02T10:33:03.363Z,8.27
2022-11-02T10:36:04.312Z,10.87
2022-11-02T10:38:38.709Z,4.97
2022-11-02T10:41:17.531Z,8.87
2022-11-02T10:44:01.930Z,8.90
2022-11-02T10:50:11.013Z,7.70
2022-11-02T10:52:43.245Z,7.30
2022-11-02T10:55:20.389Z,10.20
2022-11-02T10:57:49.825Z,9.77
2022-11-02T11:00:32.555Z,5.70
2022-11-02T11:03:06.480Z,6.27
2022-11-02T11:05:38.950Z,7.10
2022-11-02T11:08:08.391Z,4.47
2022-11-02T11:10:39.676Z,9.67
2022-11-02T11:15:57.375Z,7.43
2022-11-02T11:21:16.629Z,2.77
2022-11-02T11:23:45.183Z,9.37
2022-11-02T11:26:28.967Z,9.77
2022-11-02T11:28:58.286Z,8.33
2022-11-02T11:31:27.565Z,4.33
2022-11-02T11:33:58.505Z,6.77
2022-11-02T11:36:32.109Z,8.90
2022-11-02T11:39:02.887Z,5.77
2022-11-02T11:41:34.840Z,7.17
2022-11-02T11:44:04.543Z,7.67
2022-11-02T11:46:45.834Z,8.37
2022-11-02T11:49:41.482Z,7.67
2022-11-02T11:52:20.180Z,9.73
2022-11-02T11:54:57.508Z,7.50
2022-11-02T11:57:32.121Z,5.03
2022-11-02T12:00:01.917Z,4.90
2022-11-02T12:02:41.018Z,6.53
2022-11-02T12:05:15.896Z,5.13
2022-11-02T12:08:04.545Z,6.53
2022-11-02T12:10:47.095Z,5.20
2022-11-02T12:13:35.067Z,7.40
2022-11-02T12:16:15.508Z,7.07
2022-11-02T12:19:01.635Z,6.13
2022-11-02T12:21:45.846Z,6.73
2022-11-02T12:24:39.830Z,5.00
2022-11-02T12:27:20.592Z,4.90
2022-11-02T12:30:14.772Z,9.17
2022-11-02T12:32:55.438Z,7.33
2022-11-02T12:35:56.319Z,5.90
2022-11-02T12:38:46.148Z,4.87
2022-11-02T12:41:32.406Z,9.77
2022-11-02T12:44:33.010Z,12.53
2022-11-02T12:47:09.258Z,9.67
2022-11-02T12:49:46.705Z,5.33
2022-11-02T12:52:29.657Z,6.43
2022-11-02T12:55:01.436Z,8.13
2022-11-02T12:57:37.463Z,7.63
2022-11-02T13:00:09.194Z,8.00
2022-11-02T13:02:52.396Z,7.37
2022-11-02T13:05:24.196Z,4.87
2022-11-02T13:07:57.657Z,5.73
2022-11-02T13:10:31.835Z,5.40
2022-11-02T13:13:04.283Z,5.30
2022-11-02T13:15:35.996Z,5.73
2022-11-02T13:18:11.434Z,7.23
2022-11-02T13:20:44.510Z,6.30
2022-11-02T13:23:24.075Z,9.87
2022-11-02T13:25:58.711Z,8.77
2022-11-02T13:28:35.158Z,4.00
2022-11-02T13:31:10.108Z,11.17
2022-11-02T13:33:48.601Z,8.10
2022-11-02T13:36:17.083Z,5.73
2022-11-02T13:38:50.361Z,7.40
2022-11-02T13:41:51.913Z,6.40
2022-11-02T13:44:38.990Z,4.30
2022-11-02T13:47:32.707Z,7.30
2022-11-02T13:50:03.465Z,6.70
2022-11-02T13:52:39.222Z,6.23
2022-11-02T13:55:10.700Z,5.27
2022-11-02T13:57:42.335Z,3.47
2022-11-02T14:00:31.593Z,5.80
2022-11-02T14:03:07.119Z,4.70
2022-11-02T14:05:42.129Z,6.27
2022-11-02T14:08:19.013Z,6.77
2022-11-02T14:11:03.848Z,4.77
2022-11-02T14:14:22.313Z,7.77
2022-11-02T14:17:12.992Z,4.30
2022-11-02T14:19:53.773Z,6.37
2022-11-02T14:22:22.136Z,7.77
2022-11-02T14:25:16.101Z,1.70
2022-11-02T14:27:44.742Z,7.93
2022-11-02T14:30:42.626Z,7.93
2022-11-02T14:33:20.156Z,5.17
2022-11-02T14:35:58.588Z,5.03
2022-11-02T14:38:49.831Z,3.63
2022-11-02T14:41:47.511Z,6.30
2022-11-02T14:44:36.074Z,4.57
2022-11-02T14:47:09.294Z,10.23
2022-11-02T14:49:47.885Z,16.20
2022-11-02T14:52:27.135Z,13.83
2022-11-02T14:55:02.832Z,11.77
2022-11-02T14:57:35.748Z,14.23
2022-11-02T15:00:07.189Z,8.80
2022-11-02T15:02:41.995Z,7.53
2022-11-02T15:05:24.879Z,6.87
2022-11-02T15:07:59.801Z,5.63
2022-11-02T15:10:41.124Z,4.87
2022-11-02T15:13:35.181Z,4.90
2022-11-02T15:16:40.086Z,8.50
2022-11-02T15:19:40.599Z,5.23
2022-11-02T15:22:39.066Z,6.57
2022-11-02T15:25:13.712Z,4.33
2022-11-02T15:27:45.022Z,9.67
2022-11-02T15:30:16.675Z,12.10
2022-11-02T15:32:48.717Z,7.57
2022-11-02T15:35:20.912Z,9.47
2022-11-02T15:38:15.755Z,12.33
2022-11-02T15:40:48.865Z,8.47
2022-11-02T15:43:43.949Z,4.30
2022-11-02T15:46:25.444Z,6.20
2022-11-02T15:49:04.083Z,4.90
2022-11-02T15:51:41.029Z,8.63
2022-11-02T15:54:19.041Z,21.57
2022-11-02T15:57:00.705Z,14.47
2022-11-02T15:59:50.120Z,14.57
2022-11-02T16:02:27.567Z,7.50
2022-11-02T16:04:58.206Z,15.47
2022-11-02T16:07:33.451Z,8.73
2022-11-02T16:10:22.071Z,9.27
2022-11-02T16:12:58.304Z,7.87
2022-11-02T16:15:26.969Z,8.57
2022-11-02T16:17:55.115Z,10.83
2022-11-02T16:20:26.988Z,7.37
2022-11-02T16:22:57.624Z,9.90
2022-11-02T16:25:36.861Z,10.97
2022-11-02T16:28:18.456Z,12.77
2022-11-02T16:31:00.247Z,14.87
2022-11-02T16:33:31.813Z,7.53
2022-11-02T16:36:01.278Z,10.83
2022-11-02T16:38:30.572Z,11.03
2022-11-02T16:41:00.986Z,9.97
2022-11-02T16:43:29.343Z,9.23
2022-11-02T16:46:03.756Z,9.40
2022-11-02T16:48:34.394Z,15.57
2022-11-02T16:51:18.398Z,20.37
2022-11-02T16:53:46.520Z,11.23
2022-11-02T16:56:28.572Z,11.43
2022-11-02T16:59:02.768Z,11.43
2022-11-02T17:01:37.502Z,7.97
2022-11-02T17:04:18.611Z,7.50
2022-11-02T17:06:47.391Z,7.50
2022-11-02T17:09:29.116Z,12.17
2022-11-02T17:12:01.082Z,9.57
2022-11-02T17:14:30.393Z,19.93
2022-11-02T17:17:01.503Z,13.00
2022-11-02T17:19:46.636Z,12.73
2022-11-02T17:22:23.974Z,14.00
2022-11-02T17:25:05.418Z,12.40
2022-11-02T17:27:39.260Z,11.87
2022-11-02T17:30:52.007Z,11.87
2022-11-02T17:33:28.150Z,10.73
2022-11-02T17:35:58.198Z,9.70
2022-11-02T17:38:28.382Z,11.80
2022-11-02T17:40:56.986Z,16.27
2022-11-02T17:43:25.229Z,14.93
2022-11-02T17:45:57.556Z,14.17
2022-11-02T17:48:26.454Z,14.20
2022-11-02T17:50:55.593Z,17.90
2022-11-02T17:53:24.483Z,10.83
2022-11-02T17:55:54.514Z,13.40
2022-11-02T17:58:24.290Z,13.13
2022-11-02T18:00:54.703Z,18.17
2022-11-02T18:03:29.844Z,15.73
2022-11-02T18:06:00.794Z,13.50
2022-11-02T18:08:29.567Z,13.67
2022-11-02T18:10:57.837Z,14.80
2022-11-02T18:13:26.084Z,12.90
2022-11-02T18:15:55.418Z,20.10
2022-11-02T18:18:23.405Z,22.40
2022-11-02T18:20:51.408Z,25.10
2022-11-02T18:23:20.372Z,17.10
2022-11-02T18:25:52.824Z,16.30
2022-11-02T18:28:23.142Z,17.33
2022-11-02T18:30:51.073Z,21.17
2022-11-02T18:33:20.285Z,23.33
2022-11-02T18:35:48.308Z,26.23
2022-11-02T18:38:16.255Z,19.47
2022-11-02T18:40:44.340Z,23.87
2022-11-02T18:43:12.252Z,23.60
2022-11-02T18:45:42.259Z,25.30
2022-11-02T18:48:10.185Z,29.03
2022-11-02T18:50:39.476Z,26.30
2022-11-02T18:53:08.403Z,32.33
2022-11-02T18:55:39.515Z,37.70
2022-11-02T18:58:08.551Z,25.33
2022-11-02T19:00:36.909Z,31.83
2022-11-02T19:03:04.936Z,26.27
2022-11-02T19:05:50.713Z,27.60
2022-11-02T19:08:42.590Z,30.00
2022-11-02T19:11:10.917Z,20.27
2022-11-02T19:13:39.308Z,37.00
2022-11-02T19:16:07.878Z,67.47
2022-11-02T19:18:35.857Z,122.90
2022-11-02T19:21:05.042Z,56.93
2022-11-02T19:23:36.452Z,31.80
2022-11-02T19:26:04.556Z,32.00
2022-11-02T19:28:32.752Z,33.50
2022-11-02T19:31:01.524Z,213.77
2022-11-02T19:33:29.665Z,112.23
2022-11-02T19:35:59.420Z,179.13
2022-11-02T19:38:28.065Z,173.87
2022-11-02T19:41:05.066Z,109.93
2022-11-02T19:43:33.432Z,81.73
2022-11-02T19:46:02.294Z,79.63
2022-11-02T19:48:35.673Z,66.73
2022-11-02T19:51:12.357Z,52.53
2022-11-02T19:53:48.682Z,51.50
2022-11-02T19:56:19.894Z,37.23
2022-11-02T19:58:50.498Z,28.13
2022-11-02T20:01:21.743Z,26.37
2022-11-02T20:03:51.023Z,33.60
2022-11-02T20:06:21.804Z,26.90
2022-11-02T20:08:57.517Z,59.60
2022-11-02T20:11:28.481Z,29.53
2022-11-02T20:13:59.044Z,19.10
2022-11-02T20:16:27.715Z,34.30
2022-11-02T20:18:56.638Z,24.23
2022-11-02T20:21:31.614Z,20.77
2022-11-02T20:24:01.944Z,24.70
2022-11-02T20:26:34.522Z,32.03
2022-11-02T20:29:03.765Z,28.77
2022-11-02T20:31:34.389Z,24.77
2022-11-02T20:34:04.140Z,20.60
2022-11-02T20:36:32.178Z,36.00
2022-11-02T20:39:00.795Z,86.80
2022-11-02T20:41:28.806Z,46.57
2022-11-02T20:43:59.531Z,29.17
2022-11-02T20:46:37.663Z,33.23
2022-11-02T20:49:21.054Z,27.30
2022-11-02T20:51:51.111Z,24.73
2022-11-02T20:54:19.976Z,20.47
2022-11-02T20:56:48.106Z,21.60
2022-11-02T20:59:17.837Z,19.90
2022-11-02T21:01:46.074Z,24.43
2022-11-02T21:04:20.283Z,22.87
2022-11-02T21:06:48.874Z,21.80
2022-11-02T21:09:17.004Z,19.13
2022-11-02T21:12:02.950Z,20.47
2022-11-02T21:14:32.455Z,20.03
2022-11-02T21:17:02.663Z,17.10
2022-11-02T21:19:31.140Z,20.60
2022-11-02T21:22:00.450Z,19.57
2022-11-02T21:24:29.708Z,30.53
2022-11-02T21:26:58.034Z,21.13
2022-11-02T21:29:26.488Z,24.63
2022-11-02T21:31:55.984Z,21.30
2022-11-02T21:34:23.942Z,16.80
2022-11-02T21:36:51.907Z,17.83
2022-11-02T21:39:20.346Z,18.50
2022-11-02T21:41:48.311Z,21.13
2022-11-02T21:44:16.330Z,14.13
2022-11-02T21:46:44.464Z,16.97
2022-11-02T21:49:13.998Z,13.60
2022-11-02T21:51:43.048Z,17.77
2022-11-02T21:54:11.402Z,9.87
2022-11-02T21:56:39.718Z,9.57
2022-11-02T21:59:09.420Z,9.80
2022-11-02T22:01:46.726Z,11.97
2022-11-02T22:04:19.700Z,11.10
2022-11-02T22:06:48.031Z,15.17
2022-11-02T22:09:16.165Z,12.90
2022-11-02T22:11:45.095Z,13.33
2022-11-02T22:14:12.647Z,13.50
2022-11-02T22:16:42.526Z,10.53
2022-11-02T22:19:12.141Z,16.30
2022-11-02T22:21:43.315Z,10.73
2022-11-02T22:24:11.873Z,15.57
2022-11-02T22:26:40.806Z,23.17
2022-11-02T22:29:08.930Z,16.10
2022-11-02T22:31:39.491Z,13.53
2022-11-02T22:34:09.099Z,16.37
2022-11-02T22:36:38.420Z,20.03
2022-11-02T22:39:08.463Z,16.90
2022-11-02T22:41:38.091Z,13.57
2022-11-02T22:44:07.571Z,15.73
2022-11-02T22:46:37.751Z,20.30
2022-11-02T22:49:05.989Z,15.63
2022-11-02T22:51:36.078Z,14.27
2022-11-02T22:54:05.909Z,16.97
2022-11-02T22:56:36.087Z,16.37
2022-11-02T22:59:04.875Z,15.17
2022-11-02T23:01:34.228Z,12.57
2022-11-02T23:04:02.833Z,12.87
2022-11-02T23:06:31.192Z,6.60
2022-11-02T23:09:00.018Z,10.67
2022-11-02T23:11:30.908Z,8.27
2022-11-02T23:14:02.052Z,15.23
2022-11-02T23:16:32.423Z,9.93
2022-11-02T23:19:27.304Z,9.57
2022-11-02T23:22:15.074Z,10.03
2022-11-02T23:25:02.362Z,14.90
2022-11-02T23:27:30.801Z,11.03
2022-11-02T23:30:17.505Z,10.73
2022-11-02T23:32:45.785Z,10.93
2022-11-02T23:35:31.362Z,17.20
2022-11-02T23:38:04.241Z,12.77
2022-11-02T23:40:32.656Z,12.53
2022-11-02T23:43:00.630Z,12.63
2022-11-02T23:45:29.921Z,14.43
2022-11-02T23:48:01.483Z,12.87
2022-11-02T23:50:49.320Z,16.13
2022-11-02T23:53:36.985Z,12.53
2022-11-02T23:56:23.604Z,13.57
2022-11-02T23:59:06.753Z,9.00
